River Falls, WI (54022)

5:30 AM CDT on September 03, 2015 (GMT -0500)
Sterling Ponds | | Change Station
CLOSE
Current Station
Personal Weather Station
Location: River Falls, WI
Elevation: 925 ft
Nearby Weather Stations

Elev 925 ft 44.89 °N, 92.64 °W | Updated 24 seconds ago

Partly Cloudy
Partly Cloudy
65.2 °F
Feels Like 65.2 °F
N
0.0
Wind Variable Wind from North
Gusts 0.0 mph

Today
High -- | Low -- °F
--% Chance of Precip.
Yesterday
High -- | Low -- °F
Precip. -- in
6:34 AM 7:44 PM
Waning Gibbous, 71% visible
Pressure 29.92 in
Visibility 5.0 miles
Clouds Scattered Clouds 1400 ft
Dew Point 65 °F
Humidity 99%
Rainfall 0.00 in
Snow Depth Not available.
UV 0 out of 12
Pollen 9.20 out of 12
Air Quality Not available.
Flu Activity Not available.
METAR K21D 031015Z AUTO 00000KT 5SM BR SCT014 18/18 A2992 RMK AO2
Pressure 29.92 in
Visibility 5.0 miles
Clouds Scattered Clouds 1400 ft
Dew Point 65 °F
Humidity 99%
Rainfall 0.00 in
Snow Depth Not available.
UV 0 out of 12
Pollen 9.20 out of 12
Air Quality Not available.
Flu Activity Not available.
METAR K21D 031015Z AUTO 00000KT 5SM BR SCT014 18/18 A2992 RMK AO2

10-Day Weather Forecast

×

Almanac

Astronomy

Sep. 03, 2015 Rise Set
Actual Time
Civil Twilight
Nautical Twilight
Astronomical Twilight
Moon
Length of Visible Light
Length of Day
Tomorrow will be .
, % of the Moon is Illuminated

Today's Extremes

State Highs State Lows

Community

WunderPhotos

Upload Photos

1,851,933 photos uploaded!

WunderBlogs® & News

Nearby

Air Quality

  Air Quality AQ Index Pollutant
Not available.

Snow Depth

Station Depth Elevation

Earthquake Activity

City Distance Mag. Time & Date
Minimum magnitude displayed is 2.5.

Coastal Water Temperatures

Place Temperature

Stations

Nearby Weather Stations

Station Location Temp. Windchill Dew Point Humidity Wind Precip. Elev Updated Type